Flood From: 19-02-2018 06:00 Until: 20-02-2018 06:00 warning for: Flood Level: Yellow info button

Although rather usual in this region, locally or potentially dangerous phenomena are expected. (such as local winds, summer thunderstorms, rising streams or high waves) Be aware and pay attention to the latest weather updates, especially if you carry out activities exposed to weather or close to a stream or shoreline. 


Meteo18 Weather Cam more information Meteo18 Weather Cam


Thunder radar more information blitzortung!


Rain radar more information rain snow radar


Visit our other weather sites:

Template documentation
and downloads

And another site



Weather Underground History page Text

Daily Summary for April 27, 2017 Units:  English    Metric   Both
« Previous Day
Next Day »
Daily Weekly Monthly Yearly Custom
  High: Low: Average:
Temperature: TemperatureC °F 2.0 °F 5.8 °F
Dew Point: DewpointC °F -1.9 °F 0.8 °F
Humidity: Humidity % 41 % 72 %
Wind Speed: WindSpeedKMH mph 0.0 mph 5.7 mph
Wind Gust: WindSpeedGustKMH mph - -
Wind:- - WSW
Pressure: PressurehPa in 1016.5 in -
Precipitation: 0.0 in    
Historical Graphs
 
 
Tabular Data for April 27, 2017
Time Temperature Dew Point Pressure Wind Wind Speed Wind Gust Humidity Rainfall Rate (Hourly)
TemperatureC °F DewpointC °F PressurehPa in Calm     Humidity % HourlyPrecipMM in
00:02 3.8 °F 1.2 °F 1017.2 in WNW 1.6 mph 8.0 mph 83 % 0.0 in
00:07 3.7 °F 1.2 °F 1017.2 in WNW 1.6 mph 6.4 mph 84 % 0.0 in
00:12 3.6 °F 1.2 °F 1017.2 in WNW 1.6 mph 6.4 mph 84 % 0.0 in
00:17 3.5 °F 1.1 °F 1017.2 in Calm   4.8 mph 84 % 0.0 in
00:22 3.4 °F 1.1 °F 1017.2 in Calm   4.8 mph 85 % 0.0 in
00:32 3.3 °F 1.0 °F 1017.2 in Calm   3.2 mph 85 % 0.0 in
00:42 3.2 °F 0.9 °F 1017.2 in WNW 1.6 mph 3.2 mph 85 % 0.0 in
00:47 3.1 °F 0.8 °F 1017.5 in NW 1.6 mph 3.2 mph 85 % 0.0 in
00:52 3.1 °F 1.0 °F 1017.2 in NNW 1.6 mph 3.2 mph 86 % 0.0 in
00:57 3.1 °F 1.0 °F 1017.2 in Calm   3.2 mph 86 % 0.0 in
01:02 3.1 °F 1.0 °F 1017.5 in NW 1.6 mph 3.2 mph 86 % 0.0 in
01:12 3.1 °F 1.1 °F 1017.2 in NW 1.6 mph 4.8 mph 87 % 0.0 in
01:17 3.1 °F 1.1 °F 1017.2 in Calm   4.8 mph 87 % 0.0 in
01:22 3.1 °F 1.1 °F 1017.2 in NW 4.8 mph 4.8 mph 87 % 0.0 in
01:32 3.1 °F 1.1 °F 1017.2 in Calm   4.8 mph 87 % 0.0 in
01:37 3.1 °F 1.1 °F 1017.2 in Calm   4.8 mph 87 % 0.0 in
01:42 3.2 °F 1.2 °F 1017.2 in Calm   4.8 mph 87 % 0.0 in
01:52 3.2 °F 1.2 °F 1017.2 in NNW 3.2 mph 4.8 mph 87 % 0.0 in
02:02 3.3 °F 1.3 °F 1017.2 in NNW 1.6 mph 8.0 mph 87 % 0.0 in
02:12 3.2 °F 1.1 °F 1017.2 in NNW 3.2 mph 9.7 mph 86 % 0.0 in
02:17 3.2 °F 1.1 °F 1017.2 in NW 8.0 mph 9.7 mph 86 % 0.0 in
02:22 3.1 °F 1.0 °F 1017.2 in NW 1.6 mph 9.7 mph 86 % 0.0 in
02:32 2.9 °F 1.0 °F 1017.2 in Calm   8.0 mph 87 % 0.0 in
02:37 2.9 °F 1.0 °F 1017.2 in Calm   8.0 mph 87 % 0.0 in
02:42 2.8 °F 1.0 °F 1017.2 in Calm   6.4 mph 88 % 0.0 in
02:47 2.9 °F 1.1 °F 1017.2 in Calm   4.8 mph 88 % 0.0 in
02:52 2.9 °F 1.1 °F 1017.2 in Calm   4.8 mph 88 % 0.0 in
03:02 2.9 °F 1.1 °F 1017.2 in West 1.6 mph 6.4 mph 88 % 0.0 in
03:12 2.6 °F 0.8 °F 1017.2 in Calm   4.8 mph 88 % 0.0 in
03:17 2.4 °F 0.6 °F 1017.2 in WNW 1.6 mph 4.8 mph 88 % 0.0 in
03:22 2.4 °F 0.8 °F 1017.2 in NW 1.6 mph 4.8 mph 89 % 0.0 in
03:27 2.3 °F 0.7 °F 1017.2 in Calm   4.8 mph 89 % 0.0 in
03:32 2.3 °F 0.7 °F 1017.2 in NW 1.6 mph 3.2 mph 89 % 0.0 in
03:42 2.2 °F 0.7 °F 1017.2 in Calm   6.4 mph 90 % 0.0 in
03:52 2.3 °F 0.8 °F 1017.2 in Calm   6.4 mph 90 % 0.0 in
03:57 2.3 °F 0.8 °F 1017.2 in NNW 1.6 mph 6.4 mph 90 % 0.0 in
04:02 2.3 °F 0.8 °F 1017.2 in North 3.2 mph 6.4 mph 90 % 0.0 in
04:12 2.2 °F 0.7 °F 1017.2 in Calm   8.0 mph 90 % 0.0 in
04:17 2.2 °F 0.7 °F 1017.2 in NNW 1.6 mph 6.4 mph 90 % 0.0 in
04:22 2.2 °F 0.9 °F 1017.2 in North 4.8 mph 6.4 mph 91 % 0.0 in
04:32 2.3 °F 1.0 °F 1017.2 in NNW 1.6 mph 6.4 mph 91 % 0.0 in
04:42 2.3 °F 1.0 °F 1017.2 in Calm   8.0 mph 91 % 0.0 in
04:47 2.4 °F 1.1 °F 1017.2 in NW 1.6 mph 6.4 mph 91 % 0.0 in
04:52 2.5 °F 1.0 °F 1017.2 in NNW 1.6 mph 6.4 mph 90 % 0.0 in
04:57 2.5 °F 1.0 °F 1017.2 in North 1.6 mph 6.4 mph 90 % 0.0 in
05:02 2.4 °F 0.9 °F 1017.2 in NNW 3.2 mph 8.0 mph 90 % 0.0 in
05:12 2.4 °F 1.1 °F 1017.2 in NW 3.2 mph 6.4 mph 91 % 0.0 in
05:17 2.4 °F 1.1 °F 1017.2 in Calm   6.4 mph 91 % 0.0 in
05:22 2.3 °F 1.0 °F 1017.2 in Calm   6.4 mph 91 % 0.0 in
05:32 2.3 °F 1.0 °F 1017.2 in NW 1.6 mph 3.2 mph 91 % 0.0 in
05:42 2.2 °F 0.9 °F 1017.2 in Calm   3.2 mph 91 % 0.0 in
05:47 2.2 °F 0.9 °F 1017.2 in WNW 1.6 mph 3.2 mph 91 % 0.0 in
05:52 2.2 °F 1.0 °F 1017.2 in NNW 4.8 mph 4.8 mph 92 % 0.0 in
05:57 2.2 °F 1.0 °F 1017.2 in NW 1.6 mph 3.2 mph 92 % 0.0 in
06:02 2.3 °F 1.1 °F 1017.2 in NW 1.6 mph 6.4 mph 92 % 0.0 in
06:12 2.3 °F 1.1 °F 1017.2 in Calm   6.4 mph 92 % 0.0 in
06:17 2.3 °F 1.1 °F 1017.5 in NNW 1.6 mph 6.4 mph 92 % 0.0 in
06:22 2.3 °F 1.1 °F 1017.5 in NNW 1.6 mph 4.8 mph 92 % 0.0 in
06:32 2.4 °F 1.2 °F 1017.5 in North 3.2 mph 4.8 mph 92 % 0.0 in
06:37 2.4 °F 1.2 °F 1017.5 in Calm   6.4 mph 92 % 0.0 in
06:42 2.4 °F 1.2 °F 1017.5 in Calm   6.4 mph 92 % 0.0 in
06:47 2.3 °F 1.0 °F 1017.5 in WNW 1.6 mph 6.4 mph 91 % 0.0 in
06:52 2.1 °F 0.8 °F 1017.5 in WNW 1.6 mph 3.2 mph 91 % 0.0 in
07:02 2.1 °F 0.9 °F 1017.8 in WNW 1.6 mph 3.2 mph 92 % 0.0 in
07:12 2.0 °F 0.8 °F 1017.8 in Calm   4.8 mph 92 % 0.0 in
07:17 2.1 °F 1.1 °F 1017.8 in Calm   4.8 mph 93 % 0.0 in
07:22 2.1 °F 1.1 °F 1017.8 in Calm   3.2 mph 93 % 0.0 in
07:27 2.2 °F 1.2 °F 1017.8 in Calm   3.2 mph 93 % 0.0 in
07:32 2.3 °F 1.3 °F 1017.8 in NW 3.2 mph 8.0 mph 93 % 0.0 in
07:37 2.4 °F 1.4 °F 1017.8 in Calm   8.0 mph 93 % 0.0 in
07:42 2.4 °F 1.4 °F 1017.8 in NW 1.6 mph 9.7 mph 93 % 0.0 in
07:47 2.5 °F 1.5 °F 1017.8 in NW 1.6 mph 9.7 mph 93 % 0.0 in
07:52 2.6 °F 1.6 °F 1017.8 in North 4.8 mph 11.3 mph 93 % 0.0 in
07:57 2.7 °F 1.7 °F 1017.8 in North 4.8 mph 11.3 mph 93 % 0.0 in
08:02 2.8 °F 1.8 °F 1017.8 in Calm   9.7 mph 93 % 0.0 in
08:12 3.0 °F 1.8 °F 1017.8 in NNW 4.8 mph 9.7 mph 92 % 0.0 in
08:17 3.1 °F 1.9 °F 1017.8 in NNE 3.2 mph 9.7 mph 92 % 0.0 in
08:22 3.2 °F 2.0 °F 1017.8 in NNE 1.6 mph 9.7 mph 92 % 0.0 in
08:32 3.5 °F 2.2 °F 1018.2 in NNW 1.6 mph 9.7 mph 91 % 0.0 in
08:42 4.1 °F 2.6 °F 1018.2 in NNW 4.8 mph 9.7 mph 90 % 0.0 in
08:52 4.6 °F 2.6 °F 1018.2 in North 6.4 mph 14.5 mph 87 % 0.0 in
09:02 4.4 °F 2.3 °F 1018.5 in NW 6.4 mph 17.7 mph 86 % 0.0 in
09:12 4.4 °F 2.4 °F 1018.5 in NNW 3.2 mph 12.9 mph 87 % 0.0 in
09:17 4.5 °F 2.4 °F 1018.5 in North 6.4 mph 12.9 mph 86 % 0.0 in
09:22 4.4 °F 2.3 °F 1018.5 in NE 8.0 mph 12.9 mph 86 % 0.0 in
09:32 4.4 °F 2.4 °F 1018.5 in NNW 8.0 mph 12.9 mph 87 % 0.0 in
09:42 4.6 °F 2.5 °F 1018.5 in North 6.4 mph 11.3 mph 86 % 0.0 in
09:52 4.8 °F 2.7 °F 1018.5 in Calm   16.1 mph 86 % 0.0 in
10:02 5.1 °F 2.8 °F 1018.5 in Calm   12.9 mph 85 % 0.0 in
10:12 5.5 °F 2.7 °F 1018.5 in NNE 3.2 mph 12.9 mph 82 % 0.0 in
10:17 5.7 °F 2.9 °F 1018.5 in NE 6.4 mph 12.9 mph 82 % 0.0 in
10:22 5.8 °F 2.6 °F 1018.5 in North 8.0 mph 11.3 mph 80 % 0.0 in
10:32 5.9 °F 2.7 °F 1018.5 in NNW 3.2 mph 9.7 mph 80 % 0.0 in
10:37 6.1 °F 2.7 °F 1018.5 in NNW 6.4 mph 9.7 mph 79 % 0.0 in
10:42 6.2 °F 2.8 °F 1018.5 in NNW 6.4 mph 9.7 mph 79 % 0.0 in
10:47 6.4 °F 3.0 °F 1018.5 in West 1.6 mph 9.7 mph 79 % 0.0 in
10:52 6.7 °F 3.0 °F 1018.5 in NNE 3.2 mph 9.7 mph 77 % 0.0 in
10:57 6.7 °F 2.8 °F 1018.5 in NW 3.2 mph 9.7 mph 76 % 0.0 in
11:02 6.9 °F 3.0 °F 1018.8 in NNW 12.9 mph 12.9 mph 76 % 0.0 in
11:12 7.4 °F 3.4 °F 1018.5 in WNW 3.2 mph 16.1 mph 76 % 0.0 in
11:22 7.6 °F 3.3 °F 1018.5 in North 4.8 mph 17.7 mph 74 % 0.0 in
11:32 7.6 °F 3.1 °F 1018.5 in North 11.3 mph 22.5 mph 73 % 0.0 in
11:37 7.8 °F 2.7 °F 1018.5 in WSW 6.4 mph 22.5 mph 70 % 0.0 in
11:42 7.8 °F 3.1 °F 1018.5 in NNW 16.1 mph 22.5 mph 72 % 0.0 in
11:52 7.6 °F 2.5 °F 1018.2 in NE 6.4 mph 20.9 mph 70 % 0.0 in
12:02 7.7 °F 2.4 °F 1018.2 in NNE 14.5 mph 24.1 mph 69 % 0.0 in
12:12 7.9 °F 1.9 °F 1018.2 in North 9.7 mph 24.1 mph 66 % 0.0 in
12:17 7.9 °F 2.4 °F 1018.2 in NNE 4.8 mph 24.1 mph 68 % 0.0 in
12:22 7.7 °F 2.0 °F 1018.2 in North 4.8 mph 24.1 mph 67 % 0.0 in
12:32 8.6 °F 2.0 °F 1017.8 in NE 16.1 mph 24.1 mph 63 % 0.0 in
12:37 8.8 °F 1.9 °F 1017.8 in NNW 11.3 mph 22.5 mph 62 % 0.0 in
12:42 8.9 °F 1.6 °F 1018.2 in North 14.5 mph 22.5 mph 60 % 0.0 in
12:47 9.2 °F 1.4 °F 1017.8 in North 3.2 mph 22.5 mph 58 % 0.0 in
12:57 9.4 °F 1.6 °F 1017.8 in NNW 12.9 mph 27.4 mph 58 % 0.0 in
13:02 8.7 °F 0.9 °F 1018.2 in NNW 17.7 mph 27.4 mph 58 % 0.0 in
13:12 7.8 °F 1.2 °F 1018.2 in NNW 9.7 mph 29.0 mph 63 % 0.0 in
13:17 7.7 °F 0.4 °F 1018.2 in NW 6.4 mph 29.0 mph 60 % 0.0 in
13:22 7.8 °F 0.3 °F 1018.2 in WNW 9.7 mph 25.7 mph 59 % 0.0 in
13:32 8.9 °F 0.6 °F 1017.8 in NNW 8.0 mph 20.9 mph 56 % 0.0 in
13:37 9.3 °F -0.1 °F 1017.8 in NW 4.8 mph 20.9 mph 52 % 0.0 in
13:42 9.4 °F 0.3 °F 1017.8 in North 14.5 mph 24.1 mph 53 % 0.0 in
13:47 9.7 °F 1.6 °F 1017.8 in NNW 14.5 mph 25.7 mph 57 % 0.0 in
13:52 9.8 °F 0.9 °F 1017.8 in NNW 9.7 mph 25.7 mph 54 % 0.0 in
14:02 9.1 °F -0.2 °F 1017.8 in North 11.3 mph 20.9 mph 52 % 0.0 in
14:12 8.8 °F -0.3 °F 1017.8 in North 24.1 mph 24.1 mph 53 % 0.0 in
14:17 9.1 °F 0.5 °F 1017.8 in NNW 17.7 mph 30.6 mph 55 % 0.0 in
14:22 9.3 °F -0.3 °F 1017.8 in WNW 16.1 mph 30.6 mph 51 % 0.0 in
14:32 10.3 °F 0.6 °F 1017.5 in NE 9.7 mph 25.7 mph 51 % 0.0 in
14:37 10.8 °F 0.2 °F 1017.5 in NW 8.0 mph 19.3 mph 48 % 0.0 in
14:42 10.6 °F 0.3 °F 1017.5 in WNW 12.9 mph 19.3 mph 49 % 0.0 in
14:47 10.0 °F -0.8 °F 1017.5 in NE 4.8 mph 27.4 mph 47 % 0.0 in
14:52 9.7 °F -0.8 °F 1017.5 in NNW 17.7 mph 27.4 mph 48 % 0.0 in
15:02 10.3 °F -1.4 °F 1017.5 in NNW 24.1 mph 25.7 mph 44 % 0.0 in
15:12 9.7 °F -1.1 °F 1017.5 in NNW 11.3 mph 25.7 mph 47 % 0.0 in
15:17 9.7 °F -1.4 °F 1017.5 in NNE 3.2 mph 27.4 mph 46 % 0.0 in
15:22 10.4 °F -1.6 °F 1017.2 in WNW 11.3 mph 25.7 mph 43 % 0.0 in
15:27 10.6 °F -0.8 °F 1017.2 in NNW 20.9 mph 22.5 mph 45 % 0.0 in
15:32 10.3 °F -0.5 °F 1017.2 in NNE 24.1 mph 24.1 mph 47 % 0.0 in
15:42 9.7 °F -1.1 °F 1017.2 in NNW 8.0 mph 29.0 mph 47 % 0.0 in
15:47 10.3 °F 0.3 °F 1017.2 in NNE 6.4 mph 29.0 mph 50 % 0.0 in
15:52 10.7 °F -0.5 °F 1017.2 in North 11.3 mph 29.0 mph 46 % 0.0 in
16:02 11.0 °F -0.5 °F 1016.8 in NNW 17.7 mph 19.3 mph 45 % 0.0 in
16:12 9.9 °F -0.3 °F 1017.2 in NW 17.7 mph 22.5 mph 49 % 0.0 in
16:17 9.7 °F -0.5 °F 1017.2 in NE 16.1 mph 25.7 mph 49 % 0.0 in
16:22 9.6 °F -0.6 °F 1017.2 in NE 19.3 mph 30.6 mph 49 % 0.0 in
16:27 9.3 °F -0.9 °F 1017.2 in NNE 14.5 mph 30.6 mph 49 % 0.0 in
16:32 9.3 °F -1.2 °F 1017.2 in North 11.3 mph 30.6 mph 48 % 0.0 in
16:42 9.3 °F -0.6 °F 1016.8 in NNE 19.3 mph 29.0 mph 50 % 0.0 in
16:52 9.6 °F -0.3 °F 1016.8 in North 9.7 mph 24.1 mph 50 % 0.0 in
16:57 10.1 °F -0.1 °F 1016.8 in NNW 11.3 mph 20.9 mph 49 % 0.0 in
17:02 10.2 °F -1.2 °F 1016.8 in NE 9.7 mph 20.9 mph 45 % 0.0 in
17:12 10.6 °F -0.5 °F 1016.8 in NNE 4.8 mph 29.0 mph 46 % 0.0 in
17:17 10.5 °F -0.6 °F 1016.8 in NNE 4.8 mph 25.7 mph 46 % 0.0 in
17:22 10.7 °F -1.4 °F 1016.5 in NNW 4.8 mph 25.7 mph 43 % 0.0 in
17:27 10.9 °F -1.5 °F 1016.5 in NNE 6.4 mph 17.7 mph 42 % 0.0 in
17:32 11.1 °F -1.7 °F 1016.5 in NNE 8.0 mph 16.1 mph 41 % 0.0 in
17:42 10.9 °F -1.2 °F 1016.5 in NE 8.0 mph 19.3 mph 43 % 0.0 in
17:52 10.3 °F -0.8 °F 1016.8 in North 17.7 mph 27.4 mph 46 % 0.0 in
17:57 10.1 °F -1.9 °F 1016.5 in NNW 11.3 mph 27.4 mph 43 % 0.0 in
18:02 10.0 °F -1.7 °F 1016.8 in North 8.0 mph 27.4 mph 44 % 0.0 in
18:12 9.9 °F -1.2 °F 1016.8 in North 11.3 mph 30.6 mph 46 % 0.0 in
18:17 9.9 °F -1.8 °F 1016.8 in NNW 9.7 mph 19.3 mph 44 % 0.0 in
18:22 9.7 °F -0.2 °F 1016.8 in NNE 11.3 mph 19.3 mph 50 % 0.0 in
18:32 8.9 °F 0.6 °F 1017.2 in West 9.7 mph 27.4 mph 56 % 0.0 in
18:42 8.6 °F 0.6 °F 1017.2 in NNW 12.9 mph 29.0 mph 57 % 0.0 in
18:52 8.8 °F 1.0 °F 1017.2 in WNW 1.6 mph 25.7 mph 58 % 0.0 in
18:57 8.7 °F 0.4 °F 1017.2 in NW 16.1 mph 25.7 mph 56 % 0.0 in
19:02 8.3 °F 0.5 °F 1017.2 in WNW 6.4 mph 25.7 mph 58 % 0.0 in
19:12 8.1 °F 1.0 °F 1017.2 in WNW 6.4 mph 22.5 mph 61 % 0.0 in
19:17 8.4 °F 0.8 °F 1017.2 in North 6.4 mph 20.9 mph 59 % 0.0 in
19:22 8.7 °F 0.9 °F 1017.2 in NW 12.9 mph 17.7 mph 58 % 0.0 in
19:27 8.8 °F 0.5 °F 1017.2 in NW 8.0 mph 17.7 mph 56 % 0.0 in
19:32 8.9 °F 0.1 °F 1017.2 in NW 8.0 mph 17.7 mph 54 % 0.0 in
19:42 8.9 °F 0.1 °F 1017.2 in West 11.3 mph 19.3 mph 54 % 0.0 in
19:47 8.9 °F 0.1 °F 1017.2 in WNW 3.2 mph 16.1 mph 54 % 0.0 in
19:52 8.9 °F 0.1 °F 1017.2 in WNW 3.2 mph 16.1 mph 54 % 0.0 in
19:57 8.9 °F -0.4 °F 1017.5 in NW 8.0 mph 14.5 mph 52 % 0.0 in
20:02 8.8 °F -0.8 °F 1017.2 in NW 11.3 mph 17.7 mph 51 % 0.0 in
20:12 8.6 °F -1.0 °F 1017.5 in NW 4.8 mph 22.5 mph 51 % 0.0 in
20:17 8.5 °F -1.1 °F 1017.5 in NNW 6.4 mph 20.9 mph 51 % 0.0 in
20:22 8.4 °F -1.2 °F 1017.5 in North 6.4 mph 20.9 mph 51 % 0.0 in
20:32 7.8 °F -1.4 °F 1017.5 in NNW 14.5 mph 19.3 mph 52 % 0.0 in
20:37 7.6 °F -1.6 °F 1017.5 in NW 1.6 mph 17.7 mph 52 % 0.0 in
20:42 7.4 °F -1.6 °F 1017.8 in NW 3.2 mph 14.5 mph 53 % 0.0 in
20:47 7.3 °F -1.4 °F 1017.8 in NNW 6.4 mph 14.5 mph 54 % 0.0 in
20:57 6.9 °F -0.3 °F 1017.8 in North 6.4 mph 17.7 mph 60 % 0.0 in
21:02 6.7 °F 0.2 °F 1017.8 in NW 6.4 mph 19.3 mph 63 % 0.0 in
21:12 6.1 °F 0.6 °F 1017.8 in NW 8.0 mph 19.3 mph 68 % 0.0 in
21:17 5.8 °F 0.6 °F 1018.2 in WNW 6.4 mph 14.5 mph 69 % 0.0 in
21:22 5.6 °F 0.8 °F 1018.2 in NW 1.6 mph 14.5 mph 71 % 0.0 in
21:27 5.4 °F 0.8 °F 1018.2 in WNW 3.2 mph 12.9 mph 72 % 0.0 in
21:32 5.2 °F 0.8 °F 1018.2 in Calm   12.9 mph 73 % 0.0 in
21:42 4.9 °F 0.7 °F 1018.2 in West 4.8 mph 11.3 mph 74 % 0.0 in
21:47 4.8 °F 0.7 °F 1018.5 in WNW 3.2 mph 9.7 mph 75 % 0.0 in
21:57 4.8 °F 0.7 °F 1018.5 in WNW 1.6 mph 8.0 mph 75 % 0.0 in
22:02 4.8 °F 0.7 °F 1018.5 in NW 1.6 mph 8.0 mph 75 % 0.0 in
22:07 4.8 °F 0.7 °F 1018.5 in Calm   8.0 mph 75 % 0.0 in
22:17 4.8 °F 0.9 °F 1018.5 in NNW 1.6 mph 4.8 mph 76 % 0.0 in
22:22 4.8 °F 1.1 °F 1018.5 in NW 1.6 mph 4.8 mph 77 % 0.0 in
22:32 4.7 °F 1.0 °F 1018.5 in NW 3.2 mph 4.8 mph 77 % 0.0 in
22:37 4.7 °F 1.0 °F 1018.5 in NNW 3.2 mph 6.4 mph 77 % 0.0 in
22:42 4.7 °F 1.0 °F 1018.5 in WNW 3.2 mph 8.0 mph 77 % 0.0 in
22:47 4.7 °F 1.0 °F 1018.5 in NNW 3.2 mph 9.7 mph 77 % 0.0 in
22:52 4.7 °F 1.0 °F 1018.5 in WNW 8.0 mph 9.7 mph 77 % 0.0 in
22:57 4.7 °F 1.0 °F 1018.5 in WNW 1.6 mph 9.7 mph 77 % 0.0 in
23:02 4.6 °F 0.9 °F 1018.5 in NW 1.6 mph 9.7 mph 77 % 0.0 in
23:12 4.7 °F 1.0 °F 1018.5 in NNW 3.2 mph 9.7 mph 77 % 0.0 in
23:17 4.7 °F 1.0 °F 1018.5 in WNW 3.2 mph 6.4 mph 77 % 0.0 in
23:22 4.6 °F 0.9 °F 1018.5 in NW 1.6 mph 8.0 mph 77 % 0.0 in
23:32 4.4 °F 0.9 °F 1018.5 in NW 1.6 mph 8.0 mph 78 % 0.0 in
23:37 4.3 °F 0.8 °F 1018.5 in WNW 6.4 mph 6.4 mph 78 % 0.0 in
23:42 4.2 °F 0.7 °F 1018.5 in WNW 1.6 mph 3.2 mph 78 % 0.0 in
23:52 4.1 °F 0.6 °F 1018.5 in WNW 4.8 mph 6.4 mph 78 % 0.0 in
23:57 4.2 °F 0.5 °F 1018.5 in WNW 8.0 mph 11.3 mph 77 % 0.0 in
Meteo18
Compliments of Weather Underground - 4 mb

Script developed by  Jim McMurry - jmcmurry@mwt.net Adapted for the template by  Wim van der Kuil - Leuven-Template.eu

You find our weather info also at:

European Weather Network

Weather Underground

Equipment we use:

Weather-station
Davis Vue

Weather-program
Meteobridge

Weather-server
Raspberry PI 2 B+

Provider
1 and 1

Davis Vue

Meteobridge

Raspberry PI 2 B+

1 and 1